sensor_id;sensor_type;location;lat;lon;timestamp;pressure;altitude;pressure_sealevel;temperature;humidity
41624;BME280;27319;50.306;18.926;2022-10-16T00:03:48;98462.47;;;13.24;87.58
41624;BME280;27319;50.306;18.926;2022-10-16T00:07:49;98472.22;;;13.25;87.99
41624;BME280;27319;50.306;18.926;2022-10-16T00:11:52;98461.44;;;13.25;88.00
41624;BME280;27319;50.306;18.926;2022-10-16T00:15:38;98467.50;;;13.27;87.66
41624;BME280;27319;50.306;18.926;2022-10-16T00:18:59;98452.34;;;13.26;87.85
41624;BME280;27319;50.306;18.926;2022-10-16T00:23:00;98463.47;;;13.23;87.68
41624;BME280;27319;50.306;18.926;2022-10-16T00:27:00;98456.75;;;13.19;87.76
41624;BME280;27319;50.306;18.926;2022-10-16T00:31:05;98465.41;;;13.14;88.58
41624;BME280;27319;50.306;18.926;2022-10-16T00:34:45;98459.88;;;13.08;88.48
41624;BME280;27319;50.306;18.926;2022-10-16T00:37:46;98454.91;;;12.97;88.60
41624;BME280;27319;50.306;18.926;2022-10-16T00:40:47;98466.00;;;12.94;89.13
41624;BME280;27319;50.306;18.926;2022-10-16T00:43:50;98469.72;;;12.93;89.03
41624;BME280;27319;50.306;18.926;2022-10-16T00:47:13;98460.28;;;12.89;89.22
41624;BME280;27319;50.306;18.926;2022-10-16T00:51:11;98465.03;;;12.87;89.91
41624;BME280;27319;50.306;18.926;2022-10-16T00:55:12;98466.06;;;12.86;89.61
41624;BME280;27319;50.306;18.926;2022-10-16T00:59:33;98467.47;;;12.74;89.48
41624;BME280;27319;50.306;18.926;2022-10-16T01:15:11;98473.84;;;12.73;90.55
41624;BME280;27319;50.306;18.926;2022-10-16T01:19:20;98465.81;;;12.65;90.42
41624;BME280;27319;50.306;18.926;2022-10-16T01:29:28;98472.56;;;12.61;90.28
41624;BME280;27319;50.306;18.926;2022-10-16T01:32:36;98474.22;;;12.62;90.64
41624;BME280;27319;50.306;18.926;2022-10-16T01:35:59;98475.44;;;12.59;90.76
41624;BME280;27319;50.306;18.926;2022-10-16T01:39:59;98474.44;;;12.52;90.63
41624;BME280;27319;50.306;18.926;2022-10-16T01:44:01;98477.66;;;12.48;90.90
41624;BME280;27319;50.306;18.926;2022-10-16T01:48:00;98481.22;;;12.48;91.49
41624;BME280;27319;50.306;18.926;2022-10-16T01:52:02;98479.34;;;12.49;91.50
41624;BME280;27319;50.306;18.926;2022-10-16T01:55:59;98488.97;;;12.43;91.34
41624;BME280;27319;50.306;18.926;2022-10-16T01:59:22;98478.69;;;12.39;91.58
41624;BME280;27319;50.306;18.926;2022-10-16T02:03:22;98488.16;;;12.35;91.52
41624;BME280;27319;50.306;18.926;2022-10-16T02:07:23;98487.19;;;12.28;92.13
41624;BME280;27319;50.306;18.926;2022-10-16T02:11:24;98498.56;;;12.38;91.61
41624;BME280;27319;50.306;18.926;2022-10-16T02:15:24;98508.50;;;12.37;91.10
41624;BME280;27319;50.306;18.926;2022-10-16T02:19:25;98499.28;;;12.24;91.10
41624;BME280;27319;50.306;18.926;2022-10-16T02:23:45;98511.06;;;12.23;91.18
41624;BME280;27319;50.306;18.926;2022-10-16T02:27:33;98503.84;;;12.15;92.06
41624;BME280;27319;50.306;18.926;2022-10-16T02:31:32;98505.72;;;12.07;92.22
41624;BME280;27319;50.306;18.926;2022-10-16T02:35:15;98498.63;;;12.14;92.68
41624;BME280;27319;50.306;18.926;2022-10-16T02:38:18;98492.59;;;12.12;92.42
41624;BME280;27319;50.306;18.926;2022-10-16T02:41:40;98499.66;;;12.13;92.54
41624;BME280;27319;50.306;18.926;2022-10-16T02:45:41;98497.13;;;12.11;92.68
41624;BME280;27319;50.306;18.926;2022-10-16T02:49:41;98490.91;;;12.11;92.57
41624;BME280;27319;50.306;18.926;2022-10-16T02:53:42;98503.34;;;12.04;92.53
41624;BME280;27319;50.306;18.926;2022-10-16T02:57:42;98500.66;;;12.04;92.92
41624;BME280;27319;50.306;18.926;2022-10-16T03:01:43;98505.22;;;12.03;92.47
41624;BME280;27319;50.306;18.926;2022-10-16T03:05:44;98512.78;;;12.00;92.25
41624;BME280;27319;50.306;18.926;2022-10-16T03:09:44;98508.91;;;11.94;92.35
41624;BME280;27319;50.306;18.926;2022-10-16T03:13:45;98513.81;;;11.83;92.24
41624;BME280;27319;50.306;18.926;2022-10-16T03:17:45;98519.19;;;11.99;93.52
41624;BME280;27319;50.306;18.926;2022-10-16T03:21:26;98514.81;;;11.90;93.12
41624;BME280;27319;50.306;18.926;2022-10-16T03:24:27;98520.38;;;11.96;93.45
41624;BME280;27319;50.306;18.926;2022-10-16T03:27:48;98524.06;;;12.03;93.94
41624;BME280;27319;50.306;18.926;2022-10-16T03:31:48;98527.59;;;11.96;93.14
41624;BME280;27319;50.306;18.926;2022-10-16T03:35:29;98531.94;;;11.97;92.73
41624;BME280;27319;50.306;18.926;2022-10-16T03:38:30;98537.84;;;11.92;92.49
41624;BME280;27319;50.306;18.926;2022-10-16T03:41:31;98542.22;;;11.93;92.59
41624;BME280;27319;50.306;18.926;2022-10-16T03:44:32;98536.66;;;11.87;92.27
41624;BME280;27319;50.306;18.926;2022-10-16T03:47:52;98534.81;;;11.87;92.79
41624;BME280;27319;50.306;18.926;2022-10-16T03:51:53;98529.44;;;11.87;92.96
41624;BME280;27319;50.306;18.926;2022-10-16T03:55:53;98527.25;;;11.91;93.71
41624;BME280;27319;50.306;18.926;2022-10-16T03:59:54;98533.63;;;11.98;92.98
41624;BME280;27319;50.306;18.926;2022-10-16T04:03:54;98535.13;;;12.00;92.98
41624;BME280;27319;50.306;18.926;2022-10-16T04:07:55;98538.84;;;11.99;93.16
41624;BME280;27319;50.306;18.926;2022-10-16T04:11:56;98538.69;;;12.01;92.86
41624;BME280;27319;50.306;18.926;2022-10-16T04:15:56;98539.69;;;12.08;92.85
41624;BME280;27319;50.306;18.926;2022-10-16T04:19:57;98551.28;;;12.08;92.94
41624;BME280;27319;50.306;18.926;2022-10-16T04:23:38;98550.13;;;12.11;93.67
41624;BME280;27319;50.306;18.926;2022-10-16T04:26:58;98545.06;;;12.08;92.70
41624;BME280;27319;50.306;18.926;2022-10-16T04:30:59;98538.66;;;12.09;93.31
41624;BME280;27319;50.306;18.926;2022-10-16T04:34:59;98533.28;;;12.17;93.91
41624;BME280;27319;50.306;18.926;2022-10-16T04:39:00;98537.00;;;12.00;92.62
41624;BME280;27319;50.306;18.926;2022-10-16T04:43:01;98544.75;;;11.95;92.88
41624;BME280;27319;50.306;18.926;2022-10-16T04:47:01;98553.81;;;11.94;92.20
41624;BME280;27319;50.306;18.926;2022-10-16T04:51:02;98546.25;;;11.89;92.57
41624;BME280;27319;50.306;18.926;2022-10-16T04:55:02;98556.53;;;11.94;92.88
41624;BME280;27319;50.306;18.926;2022-10-16T04:59:03;98552.28;;;11.83;92.39
41624;BME280;27319;50.306;18.926;2022-10-16T05:02:44;98554.50;;;11.88;93.31
41624;BME280;27319;50.306;18.926;2022-10-16T05:06:05;98556.50;;;11.86;92.78
41624;BME280;27319;50.306;18.926;2022-10-16T05:10:00;98559.53;;;11.91;92.95
41624;BME280;27319;50.306;18.926;2022-10-16T05:13:29;98570.66;;;11.88;92.93
41624;BME280;27319;50.306;18.926;2022-10-16T05:16:50;98594.84;;;11.96;93.07
41624;BME280;27319;50.306;18.926;2022-10-16T05:20:34;98593.47;;;11.92;92.87
41624;BME280;27319;50.306;18.926;2022-10-16T05:23:35;98593.97;;;11.95;93.20
41624;BME280;27319;50.306;18.926;2022-10-16T05:26:56;98596.69;;;11.87;93.43
41624;BME280;27319;50.306;18.926;2022-10-16T05:30:56;98594.84;;;11.88;93.70
41624;BME280;27319;50.306;18.926;2022-10-16T05:34:37;98588.63;;;11.79;92.98
41624;BME280;27319;50.306;18.926;2022-10-16T05:37:38;98595.50;;;11.74;92.70
41624;BME280;27319;50.306;18.926;2022-10-16T05:40:39;98599.50;;;11.70;93.16
41624;BME280;27319;50.306;18.926;2022-10-16T05:43:40;98599.84;;;11.75;93.37
41624;BME280;27319;50.306;18.926;2022-10-16T05:47:00;98601.06;;;11.80;93.55
41624;BME280;27319;50.306;18.926;2022-10-16T05:51:03;98601.88;;;11.81;92.53
41624;BME280;27319;50.306;18.926;2022-10-16T05:55:02;98613.69;;;11.88;93.46
41624;BME280;27319;50.306;18.926;2022-10-16T05:59:04;98618.38;;;11.94;93.89
41624;BME280;27319;50.306;18.926;2022-10-16T06:03:03;98624.09;;;11.91;93.00
41624;BME280;27319;50.306;18.926;2022-10-16T06:07:03;98632.97;;;11.83;93.44
41624;BME280;27319;50.306;18.926;2022-10-16T06:11:04;98637.53;;;11.83;93.50
41624;BME280;27319;50.306;18.926;2022-10-16T06:15:04;98639.88;;;11.86;93.00
41624;BME280;27319;50.306;18.926;2022-10-16T06:19:05;98650.31;;;11.89;93.60
41624;BME280;27319;50.306;18.926;2022-10-16T06:23:05;98643.25;;;11.96;94.35
41624;BME280;27319;50.306;18.926;2022-10-16T06:27:07;98647.66;;;12.05;93.93
41624;BME280;27319;50.306;18.926;2022-10-16T06:31:08;98660.59;;;12.17;94.15
41624;BME280;27319;50.306;18.926;2022-10-16T06:35:08;98668.31;;;12.28;93.88
41624;BME280;27319;50.306;18.926;2022-10-16T06:39:08;98675.56;;;12.36;94.24
41624;BME280;27319;50.306;18.926;2022-10-16T06:43:09;98676.56;;;12.51;93.84
41624;BME280;27319;50.306;18.926;2022-10-16T06:47:09;98673.84;;;12.67;93.15
41624;BME280;27319;50.306;18.926;2022-10-16T06:54:17;98674.31;;;13.02;91.16
41624;BME280;27319;50.306;18.926;2022-10-16T06:57:18;98681.38;;;13.11;89.50
41624;BME280;27319;50.306;18.926;2022-10-16T07:00:19;98685.53;;;13.22;89.93
41624;BME280;27319;50.306;18.926;2022-10-16T07:03:40;98685.66;;;13.36;88.16
41624;BME280;27319;50.306;18.926;2022-10-16T07:07:40;98683.28;;;13.41;87.48
41624;BME280;27319;50.306;18.926;2022-10-16T07:11:41;98682.41;;;13.41;87.14
41624;BME280;27319;50.306;18.926;2022-10-16T07:15:41;98687.09;;;13.47;86.77
41624;BME280;27319;50.306;18.926;2022-10-16T07:19:42;98690.66;;;13.47;86.89
41624;BME280;27319;50.306;18.926;2022-10-16T07:23:23;98700.91;;;13.52;86.74
41624;BME280;27319;50.306;18.926;2022-10-16T07:26:44;98705.91;;;13.63;85.73
41624;BME280;27319;50.306;18.926;2022-10-16T07:30:44;98714.16;;;13.69;86.24
41624;BME280;27319;50.306;18.926;2022-10-16T07:34:45;98709.50;;;13.86;85.11
41624;BME280;27319;50.306;18.926;2022-10-16T07:38:45;98700.44;;;14.09;83.82
41624;BME280;27319;50.306;18.926;2022-10-16T07:42:46;98688.69;;;14.25;83.34
41624;BME280;27319;50.306;18.926;2022-10-16T07:46:46;98688.94;;;14.38;83.73
41624;BME280;27319;50.306;18.926;2022-10-16T07:49:47;98693.91;;;14.49;83.62
41624;BME280;27319;50.306;18.926;2022-10-16T07:53:08;98696.47;;;14.42;83.00
41624;BME280;27319;50.306;18.926;2022-10-16T07:57:09;98708.75;;;14.53;82.28
41624;BME280;27319;50.306;18.926;2022-10-16T08:00:49;98717.72;;;14.68;82.30
41624;BME280;27319;50.306;18.926;2022-10-16T08:03:51;98718.94;;;14.80;81.28
41624;BME280;27319;50.306;18.926;2022-10-16T08:06:52;98723.91;;;14.91;81.03
41624;BME280;27319;50.306;18.926;2022-10-16T08:09:55;98717.03;;;15.03;80.69
41624;BME280;27319;50.306;18.926;2022-10-16T08:12:57;98704.56;;;15.16;80.41
41624;BME280;27319;50.306;18.926;2022-10-16T08:16:18;98711.66;;;15.32;79.26
41624;BME280;27319;50.306;18.926;2022-10-16T08:20:18;98708.22;;;15.38;78.12
41624;BME280;27319;50.306;18.926;2022-10-16T08:24:19;98707.28;;;15.45;78.46
41624;BME280;27319;50.306;18.926;2022-10-16T08:28:19;98715.97;;;15.55;76.77
41624;BME280;27319;50.306;18.926;2022-10-16T08:32:20;98725.47;;;15.66;76.62
41624;BME280;27319;50.306;18.926;2022-10-16T08:36:12;98723.94;;;15.78;77.16
41624;BME280;27319;50.306;18.926;2022-10-16T08:40:45;98740.03;;;16.15;75.19
41624;BME280;27319;50.306;18.926;2022-10-16T08:47:30;98733.34;;;16.46;74.40
41624;BME280;27319;50.306;18.926;2022-10-16T08:50:38;98739.22;;;16.50;73.91
41624;BME280;27319;50.306;18.926;2022-10-16T08:54:15;98737.13;;;16.52;74.01
41624;BME280;27319;50.306;18.926;2022-10-16T08:58:00;98747.16;;;16.51;74.23
41624;BME280;27319;50.306;18.926;2022-10-16T09:02:00;98743.22;;;16.54;73.02
41624;BME280;27319;50.306;18.926;2022-10-16T09:21:11;98750.06;;;16.71;73.19
41624;BME280;27319;50.306;18.926;2022-10-16T09:24:20;98749.28;;;16.77;72.39
41624;BME280;27319;50.306;18.926;2022-10-16T09:27:21;98748.88;;;16.80;71.32
41624;BME280;27319;50.306;18.926;2022-10-16T09:30:43;98767.84;;;16.80;72.87
41624;BME280;27319;50.306;18.926;2022-10-16T09:34:34;98764.34;;;16.86;72.08
41624;BME280;27319;50.306;18.926;2022-10-16T09:37:36;98774.41;;;16.92;72.11
41624;BME280;27319;50.306;18.926;2022-10-16T09:40:38;98766.16;;;17.00;72.88
41624;BME280;27319;50.306;18.926;2022-10-16T09:47:14;98769.50;;;17.23;71.16
41624;BME280;27319;50.306;18.926;2022-10-16T09:51:18;98777.84;;;17.28;70.95
41624;BME280;27319;50.306;18.926;2022-10-16T09:55:19;98792.00;;;17.44;72.02
41624;BME280;27319;50.306;18.926;2022-10-16T09:59:10;98774.31;;;17.55;71.47
41624;BME280;27319;50.306;18.926;2022-10-16T10:02:35;98775.53;;;17.80;70.12
41624;BME280;27319;50.306;18.926;2022-10-16T10:06:21;98773.50;;;17.95;70.67
41624;BME280;27319;50.306;18.926;2022-10-16T10:10:20;98780.38;;;17.91;69.17
41624;BME280;27319;50.306;18.926;2022-10-16T10:18:16;98773.22;;;18.24;69.17
41624;BME280;27319;50.306;18.926;2022-10-16T10:22:23;98779.28;;;18.26;67.85
41624;BME280;27319;50.306;18.926;2022-10-16T10:26:12;98789.81;;;18.35;69.41
41624;BME280;27319;50.306;18.926;2022-10-16T10:30:18;98790.88;;;18.41;69.32
41624;BME280;27319;50.306;18.926;2022-10-16T10:37:55;98781.25;;;18.32;68.38
41624;BME280;27319;50.306;18.926;2022-10-16T10:46:00;98766.50;;;18.20;69.04
41624;BME280;27319;50.306;18.926;2022-10-16T10:49:53;98777.38;;;18.20;68.69
41624;BME280;27319;50.306;18.926;2022-10-16T11:05:44;98776.53;;;18.19;68.57
41624;BME280;27319;50.306;18.926;2022-10-16T11:09:39;98782.59;;;18.21;68.46
41624;BME280;27319;50.306;18.926;2022-10-16T11:13:55;98782.06;;;18.32;68.22
41624;BME280;27319;50.306;18.926;2022-10-16T11:21:12;98783.38;;;18.62;68.19
41624;BME280;27319;50.306;18.926;2022-10-16T11:27:55;98785.13;;;18.96;66.87
41624;BME280;27319;50.306;18.926;2022-10-16T11:31:41;98782.88;;;19.32;66.64
41624;BME280;27319;50.306;18.926;2022-10-16T11:36:00;98784.28;;;19.73;64.93
41624;BME280;27319;50.306;18.926;2022-10-16T11:40:03;98778.47;;;20.27;64.19
41624;BME280;27319;50.306;18.926;2022-10-16T11:48:39;98777.09;;;19.92;63.64
41624;BME280;27319;50.306;18.926;2022-10-16T11:55:41;98785.09;;;19.80;63.63
41624;BME280;27319;50.306;18.926;2022-10-16T11:59:40;98786.72;;;20.01;63.85
41624;BME280;27319;50.306;18.926;2022-10-16T12:07:24;98799.84;;;20.36;63.84
41624;BME280;27319;50.306;18.926;2022-10-16T12:18:19;98808.78;;;20.94;61.68
41624;BME280;27319;50.306;18.926;2022-10-16T12:21:50;98801.38;;;21.01;60.66
41624;BME280;27319;50.306;18.926;2022-10-16T12:24:52;98809.91;;;20.73;61.93
41624;BME280;27319;50.306;18.926;2022-10-16T12:27:59;98812.44;;;20.75;61.75
41624;BME280;27319;50.306;18.926;2022-10-16T12:31:01;98804.75;;;20.59;61.55
41624;BME280;27319;50.306;18.926;2022-10-16T12:34:05;98800.25;;;20.33;62.57
41624;BME280;27319;50.306;18.926;2022-10-16T12:37:11;98809.28;;;20.34;62.52
41624;BME280;27319;50.306;18.926;2022-10-16T12:41:32;98794.81;;;20.71;61.90
41624;BME280;27319;50.306;18.926;2022-10-16T12:45:27;98800.28;;;20.71;61.53
41624;BME280;27319;50.306;18.926;2022-10-16T12:48:48;98800.56;;;20.63;62.71
41624;BME280;27319;50.306;18.926;2022-10-16T12:52:55;98803.00;;;20.33;63.06
41624;BME280;27319;50.306;18.926;2022-10-16T13:04:39;98813.16;;;19.81;65.21
41624;BME280;27319;50.306;18.926;2022-10-16T13:12:08;98821.19;;;19.56;65.34
41624;BME280;27319;50.306;18.926;2022-10-16T13:16:17;98811.97;;;19.57;66.63
41624;BME280;27319;50.306;18.926;2022-10-16T13:31:21;98817.78;;;19.87;64.65
41624;BME280;27319;50.306;18.926;2022-10-16T13:35:00;98813.00;;;19.63;64.95
41624;BME280;27319;50.306;18.926;2022-10-16T13:38:28;98803.59;;;19.39;64.83
41624;BME280;27319;50.306;18.926;2022-10-16T13:45:40;98806.31;;;19.59;64.41
41624;BME280;27319;50.306;18.926;2022-10-16T13:49:40;98796.56;;;20.02;62.85
41624;BME280;27319;50.306;18.926;2022-10-16T13:53:41;98797.47;;;19.83;62.41
41624;BME280;27319;50.306;18.926;2022-10-16T13:57:42;98784.94;;;19.56;63.86
41624;BME280;27319;50.306;18.926;2022-10-16T14:01:43;98796.44;;;19.58;64.03
41624;BME280;27319;50.306;18.926;2022-10-16T14:05:50;98797.94;;;19.41;63.20
41624;BME280;27319;50.306;18.926;2022-10-16T14:09:50;98812.81;;;19.38;64.89
41624;BME280;27319;50.306;18.926;2022-10-16T14:13:34;98814.91;;;19.30;65.01
41624;BME280;27319;50.306;18.926;2022-10-16T14:17:37;98839.19;;;19.25;64.61
41624;BME280;27319;50.306;18.926;2022-10-16T14:21:37;98844.22;;;19.28;64.89
41624;BME280;27319;50.306;18.926;2022-10-16T14:25:20;98847.13;;;19.26;64.87
41624;BME280;27319;50.306;18.926;2022-10-16T14:29:18;98837.06;;;19.14;65.93
41624;BME280;27319;50.306;18.926;2022-10-16T14:32:23;98846.28;;;19.13;65.41
41624;BME280;27319;50.306;18.926;2022-10-16T14:35:33;98845.00;;;18.96;65.22
41624;BME280;27319;50.306;18.926;2022-10-16T14:38:35;98843.94;;;18.97;65.85
41624;BME280;27319;50.306;18.926;2022-10-16T14:42:11;98841.63;;;18.94;65.71
41624;BME280;27319;50.306;18.926;2022-10-16T14:46:09;98836.16;;;18.81;66.67
41624;BME280;27319;50.306;18.926;2022-10-16T14:50:07;98845.94;;;18.62;66.70
41624;BME280;27319;50.306;18.926;2022-10-16T14:54:08;98862.28;;;18.69;66.68
41624;BME280;27319;50.306;18.926;2022-10-16T14:58:15;98860.41;;;18.69;66.69
41624;BME280;27319;50.306;18.926;2022-10-16T15:05:54;98857.47;;;18.64;66.91
41624;BME280;27319;50.306;18.926;2022-10-16T15:08:55;98855.75;;;18.57;69.04
41624;BME280;27319;50.306;18.926;2022-10-16T15:12:16;98853.03;;;18.57;68.28
41624;BME280;27319;50.306;18.926;2022-10-16T15:16:16;98850.31;;;18.57;68.49
41624;BME280;27319;50.306;18.926;2022-10-16T15:20:17;98850.72;;;18.47;67.90
41624;BME280;27319;50.306;18.926;2022-10-16T15:23:59;98849.00;;;18.40;68.38
41624;BME280;27319;50.306;18.926;2022-10-16T15:27:00;98857.44;;;18.24;69.07
41624;BME280;27319;50.306;18.926;2022-10-16T15:30:01;98860.72;;;18.13;70.22
41624;BME280;27319;50.306;18.926;2022-10-16T15:33:18;98871.72;;;17.98;69.48
41624;BME280;27319;50.306;18.926;2022-10-16T15:36:46;98868.31;;;17.90;70.03
41624;BME280;27319;50.306;18.926;2022-10-16T15:40:47;98873.28;;;17.80;70.70
41624;BME280;27319;50.306;18.926;2022-10-16T15:44:47;98866.22;;;17.58;71.33
41624;BME280;27319;50.306;18.926;2022-10-16T15:48:48;98871.34;;;17.46;72.24
41624;BME280;27319;50.306;18.926;2022-10-16T15:52:49;98880.47;;;17.39;72.98
41624;BME280;27319;50.306;18.926;2022-10-16T15:56:49;98887.41;;;17.27;74.43
41624;BME280;27319;50.306;18.926;2022-10-16T16:00:59;98891.06;;;17.13;73.97
41624;BME280;27319;50.306;18.926;2022-10-16T16:04:39;98882.38;;;17.03;74.53
41624;BME280;27319;50.306;18.926;2022-10-16T16:08:00;98889.63;;;16.96;75.42
41624;BME280;27319;50.306;18.926;2022-10-16T16:12:00;98887.03;;;16.88;76.44
41624;BME280;27319;50.306;18.926;2022-10-16T16:16:01;98891.94;;;16.78;75.33
41624;BME280;27319;50.306;18.926;2022-10-16T16:20:02;98885.31;;;16.66;75.88
41624;BME280;27319;50.306;18.926;2022-10-16T16:24:03;98902.84;;;16.49;76.52
41624;BME280;27319;50.306;18.926;2022-10-16T16:28:03;98909.28;;;16.48;77.62
41624;BME280;27319;50.306;18.926;2022-10-16T16:32:04;98913.25;;;16.37;77.91
41624;BME280;27319;50.306;18.926;2022-10-16T16:36:05;98922.16;;;16.31;77.89
41624;BME280;27319;50.306;18.926;2022-10-16T16:40:05;98936.63;;;16.24;79.14
41624;BME280;27319;50.306;18.926;2022-10-16T16:43:46;98939.16;;;16.11;78.86
41624;BME280;27319;50.306;18.926;2022-10-16T16:46:52;98944.56;;;16.11;78.46
41624;BME280;27319;50.306;18.926;2022-10-16T16:49:53;98941.28;;;16.01;78.70
41624;BME280;27319;50.306;18.926;2022-10-16T16:52:54;98944.84;;;16.01;80.98
41624;BME280;27319;50.306;18.926;2022-10-16T16:55:55;98945.88;;;16.00;80.01
41624;BME280;27319;50.306;18.926;2022-10-16T16:58:56;98945.75;;;15.94;79.90
41624;BME280;27319;50.306;18.926;2022-10-16T17:01:57;98944.94;;;15.93;80.48
41624;BME280;27319;50.306;18.926;2022-10-16T17:04:58;98945.00;;;15.85;80.80
41624;BME280;27319;50.306;18.926;2022-10-16T17:07:59;98960.66;;;15.75;79.85
41624;BME280;27319;50.306;18.926;2022-10-16T17:11:00;98972.78;;;15.65;80.31
41624;BME280;27319;50.306;18.926;2022-10-16T17:14:02;98978.66;;;15.68;80.79
41624;BME280;27319;50.306;18.926;2022-10-16T17:17:03;98983.13;;;15.61;80.14
41624;BME280;27319;50.306;18.926;2022-10-16T17:20:26;98983.47;;;15.58;80.28
41624;BME280;27319;50.306;18.926;2022-10-16T17:24:27;98989.09;;;15.57;80.98
41624;BME280;27319;50.306;18.926;2022-10-16T17:28:27;98988.41;;;15.55;81.59
41624;BME280;27319;50.306;18.926;2022-10-16T17:32:28;98995.22;;;15.51;82.06
41624;BME280;27319;50.306;18.926;2022-10-16T17:36:05;98997.63;;;15.46;82.44
41624;BME280;27319;50.306;18.926;2022-10-16T17:39:26;99004.06;;;15.45;82.47
41624;BME280;27319;50.306;18.926;2022-10-16T17:43:26;99017.28;;;15.40;82.84
41624;BME280;27319;50.306;18.926;2022-10-16T17:47:27;99021.75;;;15.33;82.96
41624;BME280;27319;50.306;18.926;2022-10-16T17:51:28;99022.75;;;15.24;83.13
41624;BME280;27319;50.306;18.926;2022-10-16T17:55:28;99025.13;;;15.27;83.64
41624;BME280;27319;50.306;18.926;2022-10-16T17:59:28;99023.00;;;15.14;82.47
41624;BME280;27319;50.306;18.926;2022-10-16T18:03:29;99029.94;;;15.09;83.13
41624;BME280;27319;50.306;18.926;2022-10-16T18:07:31;99036.25;;;15.01;83.15
41624;BME280;27319;50.306;18.926;2022-10-16T18:11:31;99037.25;;;15.00;83.48
41624;BME280;27319;50.306;18.926;2022-10-16T18:15:12;99039.44;;;15.05;84.51
41624;BME280;27319;50.306;18.926;2022-10-16T18:18:32;99037.25;;;15.00;85.26
41624;BME280;27319;50.306;18.926;2022-10-16T18:22:33;99040.97;;;14.99;85.79
41624;BME280;27319;50.306;18.926;2022-10-16T18:26:34;99050.81;;;14.92;84.30
41624;BME280;27319;50.306;18.926;2022-10-16T18:30:37;99049.97;;;14.92;86.29
41624;BME280;27319;50.306;18.926;2022-10-16T18:34:18;99044.97;;;14.81;84.81
41624;BME280;27319;50.306;18.926;2022-10-16T18:37:39;99057.47;;;14.82;84.78
41624;BME280;27319;50.306;18.926;2022-10-16T18:41:40;99061.03;;;14.74;85.29
41624;BME280;27319;50.306;18.926;2022-10-16T18:45:40;99066.97;;;14.70;85.05
41624;BME280;27319;50.306;18.926;2022-10-16T18:49:41;99062.38;;;14.70;85.70
41624;BME280;27319;50.306;18.926;2022-10-16T18:53:43;99074.25;;;14.61;85.17
41624;BME280;27319;50.306;18.926;2022-10-16T18:57:43;99074.09;;;14.55;85.60
41624;BME280;27319;50.306;18.926;2022-10-16T19:01:38;99078.81;;;14.61;86.18
41624;BME280;27319;50.306;18.926;2022-10-16T19:05:39;99084.03;;;14.54;85.67
41624;BME280;27319;50.306;18.926;2022-10-16T19:09:40;99088.25;;;14.57;85.97
41624;BME280;27319;50.306;18.926;2022-10-16T19:13:41;99093.66;;;14.57;85.86
41624;BME280;27319;50.306;18.926;2022-10-16T19:17:41;99104.47;;;14.57;86.17
41624;BME280;27319;50.306;18.926;2022-10-16T19:21:23;99096.88;;;14.52;86.00
41624;BME280;27319;50.306;18.926;2022-10-16T19:24:44;99107.88;;;14.59;85.85
41624;BME280;27319;50.306;18.926;2022-10-16T19:28:44;99112.41;;;14.58;86.43
41624;BME280;27319;50.306;18.926;2022-10-16T19:32:33;99118.47;;;14.60;87.36
41624;BME280;27319;50.306;18.926;2022-10-16T19:35:54;99122.72;;;14.55;86.34
41624;BME280;27319;50.306;18.926;2022-10-16T19:39:55;99127.25;;;14.54;86.33
41624;BME280;27319;50.306;18.926;2022-10-16T19:43:59;99129.47;;;14.59;87.67
41624;BME280;27319;50.306;18.926;2022-10-16T19:47:56;99127.78;;;14.50;86.66
41624;BME280;27319;50.306;18.926;2022-10-16T19:51:57;99123.72;;;14.46;87.31
41624;BME280;27319;50.306;18.926;2022-10-16T19:55:57;99127.25;;;14.54;87.45
41624;BME280;27319;50.306;18.926;2022-10-16T19:59:58;99127.09;;;14.56;87.10
41624;BME280;27319;50.306;18.926;2022-10-16T20:03:58;99134.88;;;14.51;86.54
41624;BME280;27319;50.306;18.926;2022-10-16T20:07:59;99141.13;;;14.51;86.33
41624;BME280;27319;50.306;18.926;2022-10-16T20:12:00;99144.66;;;14.52;87.29
41624;BME280;27319;50.306;18.926;2022-10-16T20:16:01;99140.47;;;14.49;86.64
41624;BME280;27319;50.306;18.926;2022-10-16T20:20:01;99136.06;;;14.48;87.80
41624;BME280;27319;50.306;18.926;2022-10-16T20:23:42;99149.06;;;14.45;87.74
41624;BME280;27319;50.306;18.926;2022-10-16T20:27:04;99154.31;;;14.38;87.20
41624;BME280;27319;50.306;18.926;2022-10-16T20:30:47;99150.44;;;14.41;89.50
41624;BME280;27319;50.306;18.926;2022-10-16T20:33:53;99148.09;;;14.30;87.94
41624;BME280;27319;50.306;18.926;2022-10-16T20:36:54;99161.41;;;14.23;88.03
41624;BME280;27319;50.306;18.926;2022-10-16T20:39:55;99156.19;;;14.30;88.95
41624;BME280;27319;50.306;18.926;2022-10-16T20:42:56;99166.81;;;14.39;89.30
41624;BME280;27319;50.306;18.926;2022-10-16T20:46:01;99168.00;;;14.37;88.30
41624;BME280;27319;50.306;18.926;2022-10-16T20:49:23;99169.84;;;14.28;88.04
41624;BME280;27319;50.306;18.926;2022-10-16T20:53:23;99178.13;;;14.35;88.89
41624;BME280;27319;50.306;18.926;2022-10-16T20:57:24;99185.53;;;14.25;88.30
41624;BME280;27319;50.306;18.926;2022-10-16T21:01:26;99191.63;;;14.19;89.01
41624;BME280;27319;50.306;18.926;2022-10-16T21:05:25;99188.53;;;14.14;88.56
41624;BME280;27319;50.306;18.926;2022-10-16T21:09:26;99200.38;;;14.13;88.95
41624;BME280;27319;50.306;18.926;2022-10-16T21:13:27;99196.63;;;14.06;88.29
41624;BME280;27319;50.306;18.926;2022-10-16T21:17:27;99194.63;;;14.08;89.49
41624;BME280;27319;50.306;18.926;2022-10-16T21:21:24;99202.19;;;13.96;87.99
41624;BME280;27319;50.306;18.926;2022-10-16T21:24:25;99200.69;;;14.02;89.92
41624;BME280;27319;50.306;18.926;2022-10-16T21:27:26;99208.44;;;13.97;89.72
41624;BME280;27319;50.306;18.926;2022-10-16T21:30:27;99222.59;;;13.91;89.16
41624;BME280;27319;50.306;18.926;2022-10-16T21:33:28;99225.59;;;13.88;89.73